Time;durP1;ratioP1;P1;durP2;ratioP2;P2;SDS_P1;SDS_P2;PMS_P1;PMS_P2;Temp;Humidity;BMP_temperature;BMP_pressure;BME280_temperature;BME280_humidity;BME280_pressure;Samples;Min_cycle;Max_cycle;Signal;HPM_P1;HPM_P2
2022/11/20 00:02:21;;;;;;;27.23;19.13;;;;;;;5.46;100.00;100292.81;5028184;28;20041;-75
2022/11/20 00:04:46;;;;;;;27.98;18.23;;;;;;;5.40;100.00;100297.03;5021759;28;20045;-76
2022/11/20 00:07:11;;;;;;;28.98;21.27;;;;;;;5.16;100.00;100256.69;5015378;28;20033;-76
2022/11/20 00:09:37;;;;;;;29.05;18.38;;;;;;;3.81;100.00;100028.81;4988068;28;20031;-78
2022/11/20 00:12:03;;;;;;;29.05;18.92;;;;;;;5.12;100.00;100244.47;4988524;28;20109;-76
2022/11/20 00:14:28;;;;;;;32.65;20.95;;;;;;;5.23;100.00;100273.28;5005949;28;20056;-76
2022/11/20 00:16:53;;;;;;;32.03;22.58;;;;;;;5.12;100.00;100244.47;5015061;28;20486;-76
2022/11/20 00:19:19;;;;;;;27.67;20.42;;;;;;;5.23;100.00;100260.28;5008294;28;20026;-76
2022/11/20 00:21:44;;;;;;;24.15;15.95;;;;;;;4.37;100.00;100105.25;5007836;28;20050;-75
2022/11/20 00:24:10;;;;;;;29.35;19.48;;;;;;;4.42;100.00;100119.19;5005727;28;20124;-75
2022/11/20 00:26:36;;;;;;;26.27;19.05;;;;;;;4.83;100.00;100171.97;4990287;28;20080;-76
2022/11/20 00:29:02;;;;;;;30.33;19.98;;;;;;;5.18;100.00;100230.72;5007887;28;20134;-75
2022/11/20 00:31:29;;;;;;;32.83;21.67;;;;;;;4.52;100.00;100128.94;5007602;28;20042;-76
2022/11/20 00:33:55;;;;;;;32.40;20.80;;;;;;;3.90;100.00;100032.44;5008305;28;20068;-78
2022/11/20 00:36:23;;;;;;;29.05;19.23;;;;;;;4.21;100.00;100104.94;5007904;28;20470;-75
2022/11/20 00:38:53;;;;;;;30.42;17.98;;;;;;;5.16;100.00;100277.50;5006648;28;20497;-76
2022/11/20 00:41:18;;;;;;;33.55;22.50;;;;;;;4.40;100.00;100129.56;5007373;28;20127;-75
2022/11/20 00:43:44;;;;;;;28.48;20.77;;;;;;;4.39;100.00;100121.72;5007869;28;20074;-76
2022/11/20 00:46:13;;;;;;;28.88;21.23;;;;;;;5.23;100.00;100250.75;5008222;28;20037;-78
2022/11/20 00:48:41;;;;;;;26.50;19.15;;;;;;;4.90;100.00;100182.50;5008037;28;20038;-77
2022/11/20 00:51:06;;;;;;;29.05;20.42;;;;;;;5.21;100.00;100238.56;5000364;28;20046;-78
2022/11/20 00:53:32;;;;;;;24.45;19.40;;;;;;;4.55;100.00;100128.13;4987985;28;20049;-75
2022/11/20 00:56:17;;;;;;;29.13;22.73;;;;;;;5.14;100.00;100240.16;4998098;28;20042;-75
2022/11/20 00:58:46;;;;;;;33.70;22.27;;;;;;;5.14;100.00;100224.56;5026477;28;20046;-75
2022/11/20 01:01:14;;;;;;;32.85;21.83;;;;;;;5.10;100.00;100216.69;5008115;28;20042;-76
2022/11/20 01:03:42;;;;;;;27.90;21.33;;;;;;;5.02;100.00;100220.00;5008108;28;20045;-76
2022/11/20 01:06:14;;;;;;;27.80;21.52;;;;;;;4.85;100.00;100165.09;5001416;28;20061;-75
2022/11/20 01:08:40;;;;;;;33.65;20.38;;;;;;;5.15;100.00;100228.94;5023142;28;20511;-78
2022/11/20 01:11:11;;;;;;;39.42;20.98;;;;;;;5.13;100.00;100227.13;5027098;28;20053;-77
2022/11/20 01:13:38;;;;;;;33.13;20.42;;;;;;;5.26;100.00;100221.31;5008866;28;20063;-77
2022/11/20 01:16:18;;;;;;;35.08;21.70;;;;;;;4.97;100.00;100186.97;5021561;28;20385;-77
2022/11/20 01:18:46;;;;;;;29.30;19.25;;;;;;;4.58;100.00;100131.63;5007705;28;20045;-77
2022/11/20 01:21:15;;;;;;;41.63;22.60;;;;;;;5.07;100.00;100202.75;4998853;28;20402;-75
2022/11/20 01:23:42;;;;;;;30.08;18.92;;;;;;;4.97;100.00;100193.03;4987593;28;20136;-77
2022/11/20 01:26:11;;;;;;;34.35;20.88;;;;;;;4.92;100.00;100222.41;4986350;28;20454;-78
2022/11/20 01:28:37;;;;;;;38.55;23.77;;;;;;;4.83;100.00;100179.78;4987526;28;20581;-78
2022/11/20 01:31:14;;;;;;;36.85;22.00;;;;;;;4.01;100.00;100043.94;4988198;28;20073;-77
2022/11/20 01:33:41;;;;;;;29.48;20.63;;;;;;;4.17;100.00;100071.97;4987664;28;20073;-78
2022/11/20 01:36:07;;;;;;;35.35;22.17;;;;;;;4.98;100.00;100225.13;4987242;28;20050;-75
2022/11/20 01:38:33;;;;;;;38.40;23.67;;;;;;;4.21;100.00;100083.28;5004281;28;20520;-76
2022/11/20 01:40:58;;;;;;;34.53;22.75;;;;;;;4.16;100.00;100080.59;5007011;28;20042;-77
2022/11/20 01:43:25;;;;;;;32.10;21.75;;;;;;;3.96;100.00;100049.03;5006673;28;20045;-77
2022/11/20 01:46:06;;;;;;;41.65;19.70;;;;;;;4.95;100.00;100199.06;4989976;28;20654;-77
2022/11/20 01:48:57;;;;;;;31.10;21.00;;;;;;;4.92;100.00;100205.09;5006620;28;20050;-75
2022/11/20 01:51:33;;;;;;;33.58;21.75;;;;;;;4.63;100.00;100168.09;4998448;28;20173;-76
2022/11/20 01:54:03;;;;;;;34.15;17.45;;;;;;;4.87;100.00;100193.72;5004840;28;20034;-77
2022/11/20 01:56:33;;;;;;;33.38;19.75;;;;;;;4.27;100.00;100079.94;5012645;28;20097;-77
2022/11/20 01:59:03;;;;;;;32.53;23.50;;;;;;;4.48;100.00;100113.25;5005025;28;20108;-77
2022/11/20 02:01:29;;;;;;;28.83;19.42;;;;;;;4.70;100.00;100167.38;5025929;28;20525;-77
2022/11/20 02:03:56;;;;;;;32.08;20.83;;;;;;;4.00;100.00;100040.47;5027348;28;20124;-77
2022/11/20 02:07:09;;;;;;;35.38;24.63;;;;;;;4.83;100.00;100184.13;5023312;28;20914;-76
2022/11/20 02:09:35;;;;;;;39.28;24.92;;;;;;;4.93;100.00;100177.34;4949373;28;20096;-76
2022/11/20 02:12:00;;;;;;;28.65;19.20;;;;;;;4.18;100.00;100052.06;5009824;28;20054;-77
2022/11/20 02:14:26;;;;;;;38.15;20.75;;;;;;;4.85;100.00;100172.88;5018636;28;20041;-77
2022/11/20 02:16:54;;;;;;;34.85;20.70;;;;;;;3.88;100.00;100019.44;4996972;28;20828;-76
2022/11/20 02:19:31;;;;;;;32.20;20.85;;;;;;;4.75;100.00;100170.97;4990901;28;20077;-76
2022/11/20 02:22:02;;;;;;;31.98;20.58;;;;;;;4.80;100.00;100163.22;5009677;28;20042;-75
2022/11/20 02:24:28;;;;;;;32.20;19.27;;;;;;;3.87;100.00;100007.31;5005813;28;20050;-77
2022/11/20 02:27:01;;;;;;;33.25;18.52;;;;;;;4.64;100.00;100121.38;4973083;28;20608;-74
2022/11/20 02:29:30;;;;;;;;;;;;;;;4.76;100.00;100151.91;4999016;28;20129;-73
2022/11/20 02:31:58;;;;;;;25.77;17.42;;;;;;;4.48;100.00;100115.84;4997603;28;20017;-77
2022/11/20 02:34:24;;;;;;;29.83;17.25;;;;;;;4.73;100.00;100166.56;4990432;28;20026;-74
2022/11/20 02:36:52;;;;;;;23.67;16.80;;;;;;;3.97;100.00;100014.44;4991186;28;20034;-76
2022/11/20 02:39:20;;;;;;;27.98;17.55;;;;;;;4.62;100.00;100142.97;4972956;28;20047;-76
2022/11/20 02:41:46;;;;;;;21.15;16.52;;;;;;;3.84;100.00;99994.28;4990457;28;20047;-75
2022/11/20 02:44:12;;;;;;;25.23;17.20;;;;;;;3.97;100.00;100022.22;4990336;28;20046;-75
2022/11/20 02:46:37;;;;;;;26.83;19.70;;;;;;;3.89;100.00;99991.78;4988215;28;20685;-75
2022/11/20 02:49:04;;;;;;;26.98;19.50;;;;;;;4.50;100.00;100108.97;5010422;28;20119;-75
2022/11/20 02:51:31;;;;;;;27.60;18.70;;;;;;;4.65;100.00;100114.44;5009309;28;20045;-76
2022/11/20 02:53:56;;;;;;;27.25;18.13;;;;;;;3.90;100.00;99976.22;4981382;28;20707;-76
2022/11/20 02:56:22;;;;;;;28.23;17.00;;;;;;;4.65;100.00;100119.66;5022630;28;20045;-77
2022/11/20 02:58:48;;;;;;;23.35;16.45;;;;;;;4.04;100.00;100028.41;5042873;28;20503;-76
2022/11/20 03:01:14;;;;;;;43.13;19.20;;;;;;;4.68;100.00;100144.81;5021535;28;20061;-77
2022/11/20 03:03:39;;;;;;;25.45;16.15;;;;;;;4.63;100.00;100144.72;5009491;28;20077;-76
2022/11/20 03:06:05;;;;;;;35.08;16.95;;;;;;;4.50;100.00;100109.84;5010654;28;20096;-75
2022/11/20 03:08:30;;;;;;;27.58;15.77;;;;;;;3.83;100.00;99992.53;5006940;28;20046;-76
2022/11/20 03:10:56;;;;;;;21.50;14.35;;;;;;;3.83;100.00;99973.47;5009563;28;20132;-75
2022/11/20 03:13:21;;;;;;;24.92;15.25;;;;;;;4.20;100.00;100037.38;5009426;28;20030;-75
2022/11/20 03:15:47;;;;;;;24.02;14.98;;;;;;;3.85;100.00;99970.06;5010416;28;20038;-76
2022/11/20 03:18:13;;;;;;;30.05;15.73;;;;;;;4.59;100.00;100086.63;5008175;28;20103;-76
2022/11/20 03:20:39;;;;;;;15.20;10.77;;;;;;;3.77;100.00;99962.16;4991426;28;20161;-76
2022/11/20 03:23:04;;;;;;;21.60;13.60;;;;;;;4.77;100.00;100137.19;5025909;28;20029;-76
2022/11/20 03:25:30;;;;;;;22.67;13.63;;;;;;;3.87;100.00;99968.38;5028765;28;20046;-74
2022/11/20 03:27:55;;;;;;;24.95;13.10;;;;;;;3.89;100.00;99971.88;5029956;28;20151;-76
2022/11/20 03:30:21;;;;;;;17.45;12.57;;;;;;;4.53;100.00;100112.50;5028937;28;20494;-76
2022/11/20 03:32:47;;;;;;;18.90;10.68;;;;;;;4.48;100.00;100116.72;5018814;28;20042;-76
2022/11/20 03:35:12;;;;;;;18.77;11.80;;;;;;;4.68;100.00;100130.09;5012659;28;20058;-78
2022/11/20 03:37:38;;;;;;;22.05;11.60;;;;;;;4.71;100.00;100144.91;5004709;28;20050;-74
2022/11/20 03:40:04;;;;;;;21.40;12.90;;;;;;;4.71;100.00;100143.16;4991800;28;20904;-75
2022/11/20 03:42:44;;;;;;;30.25;12.50;;;;;;;4.72;100.00;100149.22;5008746;28;20413;-77
2022/11/20 03:45:10;;;;;;;23.42;10.95;;;;;;;4.64;100.00;100152.56;5004076;28;20208;-75
2022/11/20 03:47:35;;;;;;;18.50;11.35;;;;;;;4.67;100.00;100148.28;5008912;28;20585;-76
2022/11/20 03:50:01;;;;;;;19.35;13.25;;;;;;;3.86;100.00;100002.09;5007708;28;20061;-77
2022/11/20 03:52:27;;;;;;;22.92;10.27;;;;;;;4.08;100.00;100018.97;4989758;28;20050;-74
2022/11/20 03:54:52;;;;;;;17.52;10.25;;;;;;;3.97;100.00;99979.81;5007946;28;20038;-77
2022/11/20 03:57:17;;;;;;;13.68;10.23;;;;;;;4.68;100.00;100092.84;5020201;28;20513;-77
2022/11/20 03:59:43;;;;;;;16.05;10.65;;;;;;;3.81;100.00;99926.72;5008674;28;20092;-76
2022/11/20 04:02:08;;;;;;;19.75;10.80;;;;;;;4.50;100.00;100024.13;4995548;28;20042;-77
2022/11/20 04:04:34;;;;;;;43.00;15.20;;;;;;;4.85;100.00;100084.50;5001082;28;20132;-75
2022/11/20 04:06:59;;;;;;;13.65;8.80;;;;;;;4.67;100.00;100027.00;5009839;28;20449;-76
2022/11/20 04:09:25;;;;;;;19.58;11.68;;;;;;;4.78;100.00;100048.88;4996874;28;20057;-76
2022/11/20 04:11:50;;;;;;;17.35;10.43;;;;;;;4.08;100.00;99899.56;5014064;28;20064;-76
2022/11/20 04:14:16;;;;;;;14.98;9.05;;;;;;;4.91;100.00;100047.34;5013234;28;20135;-77
2022/11/20 04:16:42;;;;;;;18.08;8.63;;;;;;;4.25;100.00;99915.44;5005545;28;20045;-77
2022/11/20 04:19:13;;;;;;;16.73;9.35;;;;;;;5.09;100.00;100044.16;4954542;28;20030;-77
2022/11/20 04:21:39;;;;;;;16.00;8.85;;;;;;;4.17;100.00;99895.41;5002732;28;20050;-77
2022/11/20 04:24:05;;;;;;;16.98;9.90;;;;;;;4.33;100.00;99878.38;5004324;28;20057;-77
2022/11/20 04:26:31;;;;;;;16.55;11.25;;;;;;;4.37;100.00;99876.69;5007661;28;20077;-78
2022/11/20 04:28:57;;;;;;;18.13;8.65;;;;;;;4.21;100.00;99862.56;5008480;28;20410;-77
2022/11/20 04:31:26;;;;;;;18.33;9.88;;;;;;;4.51;100.00;99926.25;4991080;28;20049;-76
2022/11/20 04:33:52;;;;;;;18.17;9.15;;;;;;;4.51;100.00;99895.94;5007685;28;20025;-76
2022/11/20 04:36:19;;;;;;;25.95;11.45;;;;;;;4.63;100.00;99911.72;4979379;28;20057;-76
2022/11/20 04:38:45;;;;;;;17.70;9.35;;;;;;;4.52;100.00;99909.81;4988765;28;20043;-76
2022/11/20 04:41:16;;;;;;;19.17;9.57;;;;;;;5.18;100.00;100052.13;4990666;28;20113;-78
2022/11/20 04:43:41;;;;;;;16.90;10.48;;;;;;;4.64;100.00;99941.22;5002552;28;20157;-77
2022/11/20 04:46:07;;;;;;;22.40;11.80;;;;;;;4.96;100.00;100019.69;4999915;28;20113;-76
2022/11/20 04:48:32;;;;;;;15.18;8.77;;;;;;;5.08;100.00;100061.50;5005000;28;20049;-77
2022/11/20 04:51:02;;;;;;;43.15;11.50;;;;;;;4.51;100.00;99942.72;4997468;28;20053;-77
2022/11/20 04:53:27;;;;;;;13.77;8.88;;;;;;;5.28;100.00;100069.63;4988146;28;20042;-77
2022/11/20 04:56:02;;;;;;;13.10;9.10;;;;;;;4.33;100.00;99943.28;5008617;28;20100;-77
2022/11/20 04:58:28;;;;;;;17.50;9.93;;;;;;;4.90;100.00;100091.53;5026992;28;20129;-77
2022/11/20 05:01:02;;;;;;;15.20;10.05;;;;;;;4.21;100.00;99987.19;5025584;28;20116;-76
2022/11/20 05:03:27;;;;;;;15.20;8.90;;;;;;;3.93;100.00;99968.53;5027287;28;20045;-76
2022/11/20 05:05:52;;;;;;;16.90;8.70;;;;;;;4.60;100.00;100108.28;5017302;28;20521;-77
2022/11/20 05:08:18;;;;;;;19.02;9.80;;;;;;;4.89;100.00;100140.00;4989115;28;20054;-76
2022/11/20 05:10:43;;;;;;;20.63;8.88;;;;;;;4.80;100.00;100119.94;5016305;28;20061;-77
2022/11/20 05:13:09;;;;;;;18.70;10.73;;;;;;;4.11;100.00;100019.91;5007125;28;20058;-76
2022/11/20 05:15:34;;;;;;;20.92;10.80;;;;;;;4.69;100.00;100113.66;5020957;28;20099;-76
2022/11/20 05:18:00;;;;;;;20.05;10.70;;;;;;;4.13;100.00;100023.41;5006258;28;20125;-76
2022/11/20 05:20:25;;;;;;;17.33;9.50;;;;;;;3.80;100.00;100000.25;5006528;28;20038;-75
2022/11/20 05:22:51;;;;;;;20.77;11.00;;;;;;;4.83;100.00;100190.19;5007057;28;20565;-76
2022/11/20 05:25:16;;;;;;;13.75;7.57;;;;;;;4.80;100.00;100191.81;5007131;28;20710;-75
2022/11/20 05:27:42;;;;;;;15.80;8.02;;;;;;;5.00;100.00;100207.81;5018504;28;20556;-78
2022/11/20 05:30:08;;;;;;;22.75;11.27;;;;;;;4.89;100.00;100172.94;5006770;28;20048;-75
2022/11/20 05:32:34;;;;;;;30.50;11.43;;;;;;;4.18;100.00;100057.25;5005176;28;20103;-75
2022/11/20 05:34:59;;;;;;;13.98;10.25;;;;;;;4.22;100.00;100041.75;5005142;28;20049;-75
2022/11/20 05:37:25;;;;;;;15.45;9.38;;;;;;;4.34;100.00;100051.50;4990544;28;20034;-75
2022/11/20 05:39:50;;;;;;;12.95;6.78;;;;;;;5.03;100.00;100187.06;4991733;28;20033;-76
2022/11/20 05:42:31;;;;;;;14.43;8.93;;;;;;;5.03;100.00;100171.47;5006859;28;20038;-75
2022/11/20 05:45:01;;;;;;;15.20;9.70;;;;;;;5.06;100.00;100180.22;5007032;28;20140;-78
2022/11/20 05:47:28;;;;;;;16.85;8.75;;;;;;;4.33;100.00;100052.38;5005002;28;20138;-77
2022/11/20 05:49:54;;;;;;;20.00;10.00;;;;;;;4.11;100.00;100034.59;4999212;28;20493;-78
2022/11/20 05:52:19;;;;;;;41.03;13.88;;;;;;;4.74;100.00;100121.56;5003966;28;20023;-78
2022/11/20 05:54:45;;;;;;;30.95;12.27;;;;;;;5.30;100.00;100220.53;4997783;28;20485;-76
2022/11/20 05:57:10;;;;;;;15.43;9.00;;;;;;;5.06;100.00;100210.56;5013029;28;20589;-75
2022/11/20 05:59:36;;;;;;;12.98;9.20;;;;;;;4.32;100.00;100089.56;5013863;28;20041;-75
2022/11/20 06:02:01;;;;;;;19.85;9.00;;;;;;;5.15;100.00;100228.03;5017984;28;20038;-76
2022/11/20 06:04:26;;;;;;;17.33;8.63;;;;;;;4.33;100.00;100085.25;5024645;28;20664;-77
2022/11/20 06:06:52;;;;;;;11.57;7.50;;;;;;;5.18;100.00;100223.78;5011670;28;20426;-79
2022/11/20 06:09:17;;;;;;;15.18;8.80;;;;;;;5.14;100.00;100221.97;5013801;28;20405;-77
2022/11/20 06:11:43;;;;;;;13.80;8.45;;;;;;;5.15;100.00;100241.03;5030978;28;20386;-76
2022/11/20 06:14:08;;;;;;;13.55;7.75;;;;;;;5.19;100.00;100235.94;5016529;28;20405;-76
2022/11/20 06:16:33;;;;;;;12.63;7.78;;;;;;;4.99;100.00;100209.56;5017852;28;20800;-76
2022/11/20 06:18:59;;;;;;;17.85;9.13;;;;;;;4.26;100.00;100084.25;5010447;28;20545;-75
2022/11/20 06:21:24;;;;;;;10.15;6.53;;;;;;;4.56;100.00;100130.72;5008203;28;20042;-76
2022/11/20 06:23:52;;;;;;;11.88;7.53;;;;;;;5.26;100.00;100255.13;5000228;28;20433;-76
2022/11/20 06:26:23;;;;;;;22.42;9.15;;;;;;;5.34;100.00;100265.66;5004727;28;20053;-76
2022/11/20 06:28:49;;;;;;;17.33;9.40;;;;;;;5.13;100.00;100221.94;5010297;28;20073;-76
2022/11/20 06:31:18;;;;;;;22.80;8.13;;;;;;;5.36;100.00;100277.00;5009914;28;20042;-76
2022/11/20 06:33:44;;;;;;;17.85;6.25;;;;;;;5.40;100.00;100289.22;5008489;28;20038;-77
2022/11/20 06:36:11;;;;;;;13.10;7.32;;;;;;;5.42;100.00;100282.31;5008046;28;20060;-75
2022/11/20 06:38:38;;;;;;;11.60;6.15;;;;;;;5.12;100.00;100215.84;5007292;28;20058;-75
2022/11/20 06:41:10;;;;;;;8.50;5.63;;;;;;;4.66;100.00;100129.22;5009550;28;20053;-74
2022/11/20 06:43:35;;;;;;;7.15;4.60;;;;;;;4.58;100.00;100117.78;5009890;28;20045;-75
2022/11/20 06:46:01;;;;;;;8.82;5.30;;;;;;;5.56;100.00;100286.03;5010284;28;20405;-76
2022/11/20 06:48:27;;;;;;;10.15;6.65;;;;;;;4.70;100.00;100145.72;5007300;28;20056;-76
2022/11/20 06:50:53;;;;;;;11.77;5.22;;;;;;;4.85;100.00;100143.44;5007544;28;20069;-76
2022/11/20 06:53:18;;;;;;;14.38;6.63;;;;;;;4.92;100.00;100111.50;5007440;28;20042;-75
2022/11/20 06:55:45;;;;;;;7.93;5.18;;;;;;;5.85;100.00;100229.28;5009271;28;20077;-77
2022/11/20 06:58:12;;;;;;;14.27;6.70;;;;;;;6.04;100.00;100240.00;4989533;28;20056;-75
2022/11/20 07:00:38;;;;;;;12.60;6.80;;;;;;;6.06;100.00;100233.09;5013784;28;20036;-76
2022/11/20 07:03:08;;;;;;;34.38;9.25;;;;;;;5.80;100.00;100178.84;5003753;28;20065;-75
2022/11/20 07:05:34;;;;;;;11.85;6.75;;;;;;;5.25;100.00;100061.78;4994858;28;20053;-76
2022/11/20 07:08:00;;;;;;;13.75;6.97;;;;;;;6.27;100.00;100203.88;5005532;28;20068;-76
2022/11/20 07:10:26;;;;;;;7.65;4.93;;;;;;;5.83;100.00;100149.38;5005456;28;20029;-75
2022/11/20 07:12:53;;;;;;;9.07;5.30;;;;;;;6.48;100.00;100225.00;4989976;28;20057;-76
2022/11/20 07:15:20;;;;;;;11.57;5.75;;;;;;;5.88;100.00;100095.66;5016039;28;20064;-76
2022/11/20 07:17:46;;;;;;;18.15;5.40;;;;;;;6.80;100.00;100218.47;5008895;28;20046;-74
2022/11/20 07:20:12;;;;;;;6.80;3.80;;;;;;;6.87;100.00;100205.53;5007264;28;20045;-75
2022/11/20 07:22:37;;;;;;;6.68;3.80;;;;;;;6.73;100.00;100154.94;5004803;28;20050;-75
2022/11/20 07:25:04;;;;;;;7.75;5.00;;;;;;;6.17;100.00;100024.88;4994369;28;20486;-76
2022/11/20 07:27:30;;;;;;;8.18;4.03;;;;;;;7.07;100.00;100158.81;4984866;28;20548;-75
2022/11/20 07:29:56;;;;;;;14.68;5.65;;;;;;;6.80;100.00;100059.41;4996313;28;20081;-75
2022/11/20 07:32:22;;;;;;;12.70;5.57;;;;;;;7.60;100.00;100147.06;4991874;28;20528;-75
2022/11/20 07:34:48;;;;;;;12.27;4.97;;;;;;;7.49;100.00;100086.06;4999299;28;20065;-76
2022/11/20 07:37:14;;;;;;;8.05;4.80;;;;;;;7.53;100.00;100143.53;4999044;28;20042;-75
2022/11/20 07:39:39;;;;;;;19.55;5.97;;;;;;;6.93;100.00;100004.78;4999036;28;20049;-76
2022/11/20 07:42:06;;;;;;;18.42;5.57;;;;;;;7.73;100.00;100106.28;4993455;28;20050;-75
2022/11/20 07:44:31;;;;;;;6.63;3.63;;;;;;;7.43;100.00;100139.13;4996294;28;20506;-75
2022/11/20 07:46:57;;;;;;;10.65;5.03;;;;;;;7.16;100.00;100150.16;4993410;28;20057;-76
2022/11/20 07:49:23;;;;;;;8.35;5.20;;;;;;;6.76;100.00;100051.53;4989617;28;20034;-76
2022/11/20 07:51:55;;;;;;;5.25;3.05;;;;;;;7.42;100.00;100162.59;5000687;28;20109;-75
2022/11/20 07:54:22;;;;;;;8.68;4.45;;;;;;;7.07;100.00;100057.06;4988725;28;20058;-76
2022/11/20 07:56:48;;;;;;;7.13;4.28;;;;;;;7.42;100.00;100146.94;5005504;28;20049;-75
2022/11/20 07:59:13;;;;;;;10.38;5.45;;;;;;;7.57;100.00;100179.25;5025560;28;20054;-76
2022/11/20 08:01:40;;;;;;;11.07;6.90;;;;;;;7.54;100.00;100215.81;5010172;28;20700;-75
2022/11/20 08:04:05;;;;;;;10.82;6.22;;;;;;;7.02;100.00;100097.00;5008906;28;20125;-75
2022/11/20 08:06:31;;;;;;;8.20;4.38;;;;;;;6.93;100.00;100080.41;5010898;28;20161;-78
2022/11/20 08:08:56;;;;;;;10.20;5.43;;;;;;;7.86;100.00;100209.94;5003066;28;20081;-75
2022/11/20 08:14:12;;;;;;;11.40;6.88;;;;;;;6.85;100.00;100084.66;4995392;28;20060;-76
2022/11/20 08:16:41;;;;;;;13.60;6.70;;;;;;;7.75;100.00;100207.28;5012594;28;20045;-76
2022/11/20 08:19:07;;;;;;;8.23;5.63;;;;;;;8.06;100.00;100215.34;4996300;28;20037;-74
2022/11/20 08:21:34;;;;;;;13.52;7.18;;;;;;;7.00;100.00;100065.69;4988724;28;20104;-77
2022/11/20 08:23:59;;;;;;;11.77;6.75;;;;;;;8.08;100.00;100212.72;5008018;28;20077;-76
2022/11/20 08:26:25;;;;;;;14.43;8.60;;;;;;;7.91;100.00;100216.06;5007087;28;20093;-76
2022/11/20 08:28:57;;;;;;;8.40;5.70;;;;;;;8.14;100.00;100218.00;5007687;28;20100;-75
2022/11/20 08:31:27;;;;;;;11.23;6.13;;;;;;;7.49;100.00;100107.84;5003196;28;20046;-76
2022/11/20 08:33:53;;;;;;;10.90;6.75;;;;;;;8.07;100.00;100229.28;4999402;28;20037;-77
2022/11/20 08:36:20;;;;;;;11.82;6.75;;;;;;;7.60;100.00;100228.03;4999996;28;20333;-77
2022/11/20 08:38:53;;;;;;;45.38;40.88;;;;;;;7.73;100.00;100229.88;4983546;28;20050;-76
2022/11/20 08:41:30;;;;;;;13.32;9.63;;;;;;;7.67;100.00;100214.16;5003029;28;20053;-74
2022/11/20 08:43:57;;;;;;;14.27;8.98;;;;;;;7.75;100.00;100216.81;4994060;28;20053;-75
2022/11/20 08:46:25;;;;;;;13.68;8.48;;;;;;;7.91;100.00;100223.91;4995918;28;20042;-76
2022/11/20 08:48:51;;;;;;;12.35;7.47;;;;;;;6.78;100.00;100098.50;4997659;28;20045;-76
2022/11/20 08:51:17;;;;;;;12.52;6.82;;;;;;;7.29;100.00;100118.13;5004406;28;20057;-79
2022/11/20 08:53:42;;;;;;;12.48;7.43;;;;;;;7.33;100.00;100106.84;5006818;28;20493;-76
2022/11/20 08:56:10;;;;;;;16.63;7.78;;;;;;;8.00;100.00;100213.53;4991138;28;20060;-76
2022/11/20 08:58:36;;;;;;;16.20;10.02;;;;;;;8.19;100.00;100266.84;5003597;28;20043;-75
2022/11/20 09:01:02;;;;;;;15.18;7.95;;;;;;;8.04;100.00;100261.47;5007034;28;20037;-77
2022/11/20 09:03:28;;;;;;;10.38;7.22;;;;;;;7.60;100.00;100259.34;5000731;28;20057;-76
2022/11/20 09:06:02;;;;;;;11.48;6.90;;;;;;;7.83;100.00;100225.59;4991485;28;20042;-75
2022/11/20 09:08:28;;;;;;;13.40;9.35;;;;;;;7.75;100.00;100224.66;4997930;28;20054;-75
2022/11/20 09:10:55;;;;;;;15.32;8.73;;;;;;;7.92;100.00;100217.84;5009381;28;20045;-77
2022/11/20 09:13:22;;;;;;;13.90;10.00;;;;;;;8.05;100.00;100250.16;5011531;28;20045;-77
2022/11/20 09:15:57;;;;;;;15.82;10.07;;;;;;;7.66;100.00;100175.00;5001972;28;20478;-76
2022/11/20 09:18:23;;;;;;;15.43;10.27;;;;;;;8.23;100.00;100255.53;5004203;28;20088;-78
2022/11/20 09:20:49;;;;;;;20.48;9.93;;;;;;;8.23;100.00;100279.03;4997016;28;20081;-77
2022/11/20 09:23:15;;;;;;;18.25;10.20;;;;;;;7.99;100.00;100244.91;4997935;28;20050;-77
2022/11/20 09:25:41;;;;;;;18.65;13.07;;;;;;;8.16;100.00;100271.16;4977393;28;20124;-76
2022/11/20 09:28:06;;;;;;;16.95;11.45;;;;;;;7.69;100.00;100177.63;5002418;28;20049;-76
2022/11/20 09:30:32;;;;;;;16.77;10.68;;;;;;;7.58;100.00;100151.41;4970594;28;20049;-78
2022/11/20 09:32:58;;;;;;;23.00;16.38;;;;;;;7.76;100.00;100235.13;4990992;28;20057;-76
2022/11/20 09:35:23;;;;;;;22.83;17.70;;;;;;;6.93;100.00;100118.63;4996966;28;20054;-75
2022/11/20 09:37:49;;;;;;;19.05;13.95;;;;;;;7.91;100.00;100226.53;5006491;28;20060;-76
2022/11/20 09:40:26;;;;;;;16.17;12.38;;;;;;;7.46;100.00;100203.53;5006858;28;20029;-76
2022/11/20 09:43:01;;;;;;;16.25;13.52;;;;;;;7.48;100.00;100238.34;5007189;28;20124;-75
2022/11/20 09:45:55;;;;;;;17.70;12.30;;;;;;;7.37;100.00;100235.63;5006374;28;20057;-75
2022/11/20 09:48:39;;;;;;;18.48;10.20;;;;;;;7.56;100.00;100228.84;5001062;28;20115;-75
2022/11/20 09:51:27;;;;;;;16.50;10.57;;;;;;;7.77;100.00;100254.28;5004416;28;20049;-75
2022/11/20 09:54:15;;;;;;;16.40;10.63;;;;;;;8.10;100.00;100251.09;5006469;28;20050;-76
2022/11/20 09:56:44;;;;;;;22.40;14.60;;;;;;;7.33;100.00;100177.31;5013721;28;20085;-77
2022/11/20 09:59:33;;;;;;;22.65;14.57;;;;;;;7.63;100.00;100258.50;5021710;28;20464;-76
2022/11/20 10:02:00;;;;;;;25.80;18.88;;;;;;;7.37;100.00;100193.88;5007358;28;20053;-76
2022/11/20 10:04:31;;;;;;;36.33;25.00;;;;;;;7.18;100.00;100153.69;4988347;28;20133;-75
2022/11/20 10:07:12;;;;;;;23.95;20.45;;;;;;;7.67;100.00;100253.31;5013788;28;20460;-75
2022/11/20 10:09:43;;;;;;;19.23;13.25;;;;;;;7.08;100.00;100129.22;5024526;28;20127;-76
2022/11/20 10:12:31;;;;;;;21.63;16.52;;;;;;;7.87;100.00;100216.94;5025911;28;20041;-77
2022/11/20 10:15:26;;;;;;;16.02;9.90;;;;;;;6.86;100.00;100109.91;4985473;28;20046;-76
2022/11/20 10:18:16;;;;;;;11.02;8.13;;;;;;;7.78;100.00;100254.31;4965326;28;20058;-78
2022/11/20 10:21:25;;;;;;;15.25;10.18;;;;;;;7.73;100.00;100260.34;4999634;28;20058;-76
2022/11/20 10:24:23;;;;;;;13.35;9.35;;;;;;;7.50;100.00;100219.22;4988194;28;20486;-77
2022/11/20 10:27:01;;;;;;;14.77;10.25;;;;;;;7.38;100.00;100153.88;5006010;28;20517;-76
2022/11/20 10:29:33;;;;;;;16.48;10.43;;;;;;;7.94;100.00;100239.63;5003595;28;20063;-76
2022/11/20 10:32:11;;;;;;;14.17;9.77;;;;;;;6.93;100.00;100092.56;5006941;28;20529;-74
2022/11/20 10:35:02;;;;;;;21.63;13.80;;;;;;;8.09;100.00;100259.78;5003325;28;20101;-75
2022/11/20 10:37:31;;;;;;;17.75;12.00;;;;;;;8.17;100.00;100247.66;4994179;28;20051;-75
2022/11/20 10:39:56;;;;;;;17.05;12.05;;;;;;;8.19;100.00;100265.94;5006097;28;20044;-75
2022/11/20 10:42:38;;;;;;;21.88;14.60;;;;;;;7.51;100.00;100209.66;5009434;28;20054;-74
2022/11/20 10:45:21;;;;;;;16.95;12.27;;;;;;;8.04;100.00;100249.28;5009147;28;20046;-77
2022/11/20 10:47:47;;;;;;;13.88;11.15;;;;;;;8.18;100.00;100240.69;5002637;28;20058;-77
2022/11/20 10:50:19;;;;;;;18.05;10.82;;;;;;;8.21;100.00;100233.72;5004566;28;20497;-77
2022/11/20 10:53:05;;;;;;;15.60;11.13;;;;;;;8.23;100.00;100249.41;5009491;28;20048;-77
2022/11/20 10:55:39;;;;;;;18.02;13.88;;;;;;;8.15;100.00;100241.53;5009086;28;20054;-77
2022/11/20 10:58:38;;;;;;;24.50;14.25;;;;;;;7.97;100.00;100199.59;5028404;28;20037;-76
2022/11/20 11:01:15;;;;;;;20.02;11.98;;;;;;;8.16;100.00;100245.88;5025269;28;20555;-76
2022/11/20 11:03:43;;;;;;;17.23;12.80;;;;;;;8.04;100.00;100248.41;5029619;28;20033;-76
2022/11/20 11:06:13;;;;;;;23.60;13.23;;;;;;;8.21;100.00;100238.06;4997455;28;20113;-77
2022/11/20 11:08:40;;;;;;;21.73;15.50;;;;;;;7.39;100.00;100108.63;5026841;28;20052;-75
2022/11/20 11:11:23;;;;;;;25.50;15.63;;;;;;;7.98;100.00;100207.44;5028537;28;20131;-76
2022/11/20 11:13:49;;;;;;;19.85;14.60;;;;;;;7.27;100.00;100100.69;5013293;28;20046;-75
2022/11/20 11:16:23;;;;;;;22.60;15.43;;;;;;;7.40;100.00;100102.56;5003979;28;20137;-76
2022/11/20 11:18:49;;;;;;;24.23;18.75;;;;;;;7.76;100.00;100174.19;4988465;28;20449;-75
2022/11/20 11:21:22;;;;;;;37.03;23.30;;;;;;;7.44;100.00;100139.97;5003760;28;20046;-75
2022/11/20 11:23:56;;;;;;;;;;;;;;;7.54;100.00;100179.25;5009280;28;20069;-76
2022/11/20 11:26:23;;;;;;;35.03;16.23;;;;;;;7.58;100.00;100196.66;5008931;28;19921;-76